Time;durP1;ratioP1;P1;durP2;ratioP2;P2;SDS_P1;SDS_P2;PMS_P1;PMS_P2;Temp;Humidity;BMP_temperature;BMP_pressure;BME280_temperature;BME280_humidity;BME280_pressure;Samples;Min_cycle;Max_cycle;Signal;HPM_P1;HPM_P2
2023/07/26 00:04:30;;;;;;;11.68;7.22;;;;;;;29.67;38.68;100250.19;20909439;28;20044;-75
2023/07/26 00:14:54;;;;;;;11.93;6.28;;;;;;;29.61;39.40;100253.34;20915885;28;20144;-75
2023/07/26 00:25:16;;;;;;;12.30;7.07;;;;;;;29.52;39.79;100243.13;20899030;28;20505;-75
2023/07/26 00:35:43;;;;;;;12.65;7.35;;;;;;;29.46;40.49;100240.84;20887553;28;20048;-75
2023/07/26 00:46:07;;;;;;;12.43;6.35;;;;;;;29.46;40.18;100241.72;20885091;28;20053;-76
2023/07/26 00:56:31;;;;;;;16.63;7.22;;;;;;;29.59;39.99;100245.31;20907558;28;20045;-75
2023/07/26 01:07:01;;;;;;;12.50;6.63;;;;;;;29.58;40.12;100242.69;20874351;28;20053;-75
2023/07/26 01:17:25;;;;;;;13.90;6.97;;;;;;;29.37;40.87;100228.75;20818638;28;20068;-75
2023/07/26 01:27:49;;;;;;;14.48;7.00;;;;;;;29.16;41.18;100222.94;20869119;28;20078;-75
2023/07/26 01:38:13;;;;;;;13.02;6.93;;;;;;;29.23;40.97;100228.81;20839110;28;20553;-75
2023/07/26 01:48:17;;;;;;;12.30;6.78;;;;;;;29.17;41.25;100229.25;20818822;28;20111;-75
2023/07/26 01:58:40;;;;;;;13.40;6.88;;;;;;;29.06;41.60;100224.59;20816514;28;20060;-75
2023/07/26 02:09:04;;;;;;;12.40;6.63;;;;;;;29.00;41.99;100221.41;20815490;28;20049;-76
2023/07/26 02:19:27;;;;;;;16.27;6.65;;;;;;;28.72;43.00;100215.13;20884212;28;20374;-75
2023/07/26 02:29:53;;;;;;;11.55;7.07;;;;;;;28.36;44.61;100215.75;20908610;28;20052;-76
2023/07/26 02:40:15;;;;;;;11.45;7.25;;;;;;;28.14;45.87;100226.31;20886034;28;20476;-76
2023/07/26 02:50:39;;;;;;;12.07;7.20;;;;;;;27.84;47.95;100228.25;20897439;28;20059;-75
2023/07/26 03:01:02;;;;;;;13.50;7.75;;;;;;;27.66;49.20;100230.31;20885887;28;20055;-75
2023/07/26 03:11:26;;;;;;;12.15;7.10;;;;;;;27.37;51.22;100243.81;20849156;28;20065;-75
2023/07/26 03:21:48;;;;;;;11.82;6.65;;;;;;;27.28;53.00;100240.81;20876119;28;20075;-76
2023/07/26 03:32:12;;;;;;;16.63;7.00;;;;;;;27.29;52.77;100237.16;20895032;28;20041;-76
2023/07/26 03:42:35;;;;;;;13.98;7.03;;;;;;;27.25;54.20;100252.72;20896827;28;20045;-76
2023/07/26 03:53:00;;;;;;;17.05;7.53;;;;;;;27.43;55.21;100245.31;20883794;28;20508;-75
2023/07/26 04:03:23;;;;;;;11.55;6.55;;;;;;;27.63;55.86;100247.66;20912156;28;20053;-75
2023/07/26 04:13:47;;;;;;;11.40;6.65;;;;;;;28.02;56.16;100265.97;20894870;28;20041;-76
2023/07/26 04:23:50;;;;;;;13.25;6.90;;;;;;;28.53;59.16;100271.69;20908436;28;20462;-75
2023/07/26 04:34:14;;;;;;;11.23;5.75;;;;;;;28.97;57.71;100287.72;20906620;28;20079;-76
2023/07/26 04:44:36;;;;;;;14.43;6.65;;;;;;;29.58;61.34;100291.66;20899699;28;20088;-76
2023/07/26 04:54:40;;;;;;;12.27;5.82;;;;;;;30.19;62.68;100292.75;20899870;28;20045;-77
2023/07/26 05:05:03;;;;;;;11.57;6.30;;;;;;;30.83;58.57;100297.88;20904077;28;20052;-77
2023/07/26 05:15:27;;;;;;;10.50;5.45;;;;;;;31.53;53.83;100314.28;20901748;28;20334;-77
2023/07/26 05:25:50;;;;;;;11.95;5.20;;;;;;;32.40;47.74;100305.44;20900302;28;20059;-77
2023/07/26 05:36:14;;;;;;;15.35;5.72;;;;;;;33.16;47.57;100320.88;20889464;28;20048;-77
2023/07/26 05:46:37;;;;;;;13.18;4.78;;;;;;;34.09;39.94;100325.59;20902235;28;20049;-77
2023/07/26 05:57:00;;;;;;;12.63;5.45;;;;;;;35.05;35.02;100329.50;20903027;28;20049;-77
2023/07/26 06:07:23;;;;;;;14.77;6.22;;;;;;;35.97;33.54;100342.78;20902202;28;20544;-77
2023/07/26 06:17:47;;;;;;;13.15;5.13;;;;;;;36.61;32.88;100346.44;20895349;28;20051;-78
2023/07/26 06:28:09;;;;;;;15.37;5.23;;;;;;;37.05;32.74;100349.34;20889384;28;20541;-76
2023/07/26 06:38:33;;;;;;;11.93;4.93;;;;;;;37.61;32.18;100345.47;20895569;28;20045;-77
2023/07/26 06:48:56;;;;;;;12.57;4.82;;;;;;;38.21;30.67;100343.63;20883013;28;20492;-77
2023/07/26 06:59:20;;;;;;;11.23;4.95;;;;;;;38.67;29.55;100340.41;20875730;28;20095;-76
2023/07/26 07:09:43;;;;;;;10.10;5.28;;;;;;;38.85;28.84;100333.94;20884201;28;20056;-77
2023/07/26 07:20:10;;;;;;;13.27;5.30;;;;;;;38.77;28.21;100328.38;20907950;28;20053;-77
2023/07/26 07:30:33;;;;;;;12.38;5.53;;;;;;;39.01;28.30;100326.56;20907026;28;20095;-77
2023/07/26 07:40:57;;;;;;;11.47;5.67;;;;;;;39.34;27.40;100321.94;20905588;28;20052;-78
2023/07/26 07:51:19;;;;;;;10.52;4.45;;;;;;;39.78;26.53;100327.97;20900369;28;20134;-77
2023/07/26 08:01:23;;;;;;;13.23;4.60;;;;;;;40.25;25.38;100316.16;20914709;28;20074;-78
2023/07/26 08:11:46;;;;;;;12.93;4.90;;;;;;;40.42;25.00;100328.91;20898554;28;20057;-78
2023/07/26 08:22:09;;;;;;;10.48;4.43;;;;;;;40.74;23.97;100314.06;20890606;28;20091;-78
2023/07/26 08:32:32;;;;;;;10.35;4.30;;;;;;;40.91;23.25;100315.69;20900771;28;20111;-78
2023/07/26 08:42:57;;;;;;;10.63;4.30;;;;;;;40.95;22.73;100319.81;20901241;28;20056;-79
2023/07/26 08:53:20;;;;;;;11.70;3.90;;;;;;;41.60;21.29;100315.72;20880043;28;20401;-79
2023/07/26 09:03:44;;;;;;;9.98;4.65;;;;;;;41.77;20.64;100308.94;20907633;28;20210;-78
2023/07/26 09:14:06;;;;;;;9.30;3.83;;;;;;;41.84;20.68;100292.41;20919183;28;20082;-77
2023/07/26 09:24:33;;;;;;;8.70;3.47;;;;;;;41.84;19.58;100296.06;20978742;28;20095;-78
2023/07/26 09:34:59;;;;;;;12.80;4.03;;;;;;;42.36;19.19;100287.69;20904339;28;20140;-78
2023/07/26 09:45:25;;;;;;;14.95;4.65;;;;;;;42.84;18.35;100286.16;20917297;28;20048;-77
2023/07/26 09:55:38;;;;;;;9.80;3.53;;;;;;;42.68;18.83;100282.72;20925314;28;20082;-77
2023/07/26 10:06:02;;;;;;;;;;;;;;;42.81;19.05;100275.44;20910286;28;20458;-79
2023/07/26 10:16:26;;;;;;;10.00;4.13;;;;;;;42.83;19.12;100269.69;20880354;28;19931;-79
2023/07/26 10:26:51;;;;;;;10.30;4.00;;;;;;;42.54;19.75;100271.44;20880917;28;20135;-80
2023/07/26 10:37:18;;;;;;;16.38;4.88;;;;;;;42.03;20.51;100258.56;20886593;28;20053;-78
2023/07/26 10:47:55;;;;;;;12.93;4.28;;;;;;;41.94;20.92;100245.88;20880615;28;20094;-79
2023/07/26 10:58:18;;;;;;;11.25;4.35;;;;;;;41.84;21.08;100232.25;20877703;28;20053;-78
2023/07/26 11:08:47;;;;;;;10.27;3.90;;;;;;;41.91;21.16;100226.81;20886649;28;20065;-79
2023/07/26 11:19:10;;;;;;;12.40;4.50;;;;;;;41.87;21.64;100219.91;20901517;28;20047;-81
2023/07/26 11:29:33;;;;;;;;;;;;;;;41.91;22.53;100221.28;20912634;28;20048;-79
2023/07/26 11:40:04;;;;;;;11.43;4.55;;;;;;;42.21;22.10;100213.78;20919076;28;19928;-80
2023/07/26 11:50:29;;;;;;;12.63;4.38;;;;;;;41.96;21.32;100199.34;20909099;28;20496;-79
2023/07/26 12:00:33;;;;;;;13.70;4.35;;;;;;;41.82;21.02;100197.41;20901678;28;20052;-78
2023/07/26 12:10:57;;;;;;;11.55;4.85;;;;;;;41.86;21.75;100187.66;20908921;28;20151;-78
2023/07/26 12:21:25;;;;;;;14.68;4.32;;;;;;;41.82;21.44;100178.84;20909661;28;20102;-78
2023/07/26 12:32:04;;;;;;;9.73;3.47;;;;;;;41.84;21.58;100170.34;20908352;28;20044;-78
2023/07/26 12:42:26;;;;;;;12.85;4.80;;;;;;;41.75;22.85;100169.59;20894324;28;20389;-78
2023/07/26 12:52:54;;;;;;;10.93;4.47;;;;;;;41.59;21.94;100169.78;20891238;28;20404;-79
2023/07/26 13:03:16;;;;;;;9.20;3.50;;;;;;;41.51;22.23;100172.66;20887522;28;20471;-78
2023/07/26 13:13:41;;;;;;;11.00;4.97;;;;;;;41.31;22.72;100177.84;20894205;28;20092;-77
2023/07/26 13:23:43;;;;;;;12.45;5.03;;;;;;;40.91;22.99;100182.72;20899127;28;20301;-78
2023/07/26 13:34:08;;;;;;;12.80;4.70;;;;;;;40.73;22.91;100167.47;20887285;28;20060;-77
2023/07/26 13:44:30;;;;;;;9.25;3.90;;;;;;;40.62;23.37;100157.66;20893580;28;20049;-77
2023/07/26 13:54:34;;;;;;;14.23;4.90;;;;;;;40.69;23.22;100146.75;20895854;28;20049;-78
2023/07/26 14:04:56;;;;;;;14.90;4.83;;;;;;;40.86;23.24;100131.69;20882909;28;20049;-77
2023/07/26 14:15:21;;;;;;;12.23;4.35;;;;;;;40.97;23.81;100126.56;20912392;28;20423;-78
2023/07/26 14:25:43;;;;;;;13.45;4.95;;;;;;;40.80;24.93;100122.22;20897878;28;20049;-78
2023/07/26 14:36:10;;;;;;;12.02;4.47;;;;;;;40.88;23.75;100119.38;20901834;28;20160;-78
2023/07/26 14:46:33;;;;;;;13.98;5.32;;;;;;;40.74;25.83;100111.03;20899670;28;20044;-75
2023/07/26 14:56:57;;;;;;;11.23;4.50;;;;;;;38.07;31.87;100118.13;20927681;28;20117;-76
2023/07/26 15:07:19;;;;;;;12.70;4.73;;;;;;;38.41;30.75;100117.97;20942857;28;20094;-75
2023/07/26 15:17:44;;;;;;;12.25;4.82;;;;;;;38.13;29.44;100117.44;20945794;28;20041;-74
2023/07/26 15:28:06;;;;;;;13.52;5.03;;;;;;;37.65;29.36;100109.84;20932975;28;20045;-75
2023/07/26 15:38:32;;;;;;;15.85;4.82;;;;;;;37.40;29.06;100115.22;20907668;28;20041;-75
2023/07/26 15:48:55;;;;;;;10.48;4.95;;;;;;;37.24;29.23;100126.13;20933601;28;20048;-76
2023/07/26 15:59:20;;;;;;;12.60;4.35;;;;;;;36.87;30.54;100131.88;20950276;28;20500;-75
2023/07/26 16:09:42;;;;;;;11.43;4.57;;;;;;;36.50;31.79;100129.28;20921823;28;20111;-76
2023/07/26 16:20:08;;;;;;;14.27;5.88;;;;;;;36.22;32.18;100125.78;20987449;28;20680;-75
2023/07/26 16:30:31;;;;;;;14.80;5.77;;;;;;;35.99;32.17;100132.69;20977086;28;20451;-75
2023/07/26 16:40:55;;;;;;;19.48;5.20;;;;;;;35.66;32.76;100138.78;20973407;28;20484;-75
2023/07/26 16:51:17;;;;;;;20.85;5.50;;;;;;;35.37;33.35;100139.78;20953561;28;20051;-75
2023/07/26 17:01:41;;;;;;;14.02;5.35;;;;;;;35.04;34.36;100138.41;20999891;28;20094;-74
2023/07/26 17:12:05;;;;;;;17.35;5.60;;;;;;;34.61;35.98;100146.22;20889780;28;20060;-75
2023/07/26 17:22:30;;;;;;;19.60;6.88;;;;;;;34.01;36.92;100149.03;20976393;28;20048;-75
2023/07/26 17:32:52;;;;;;;17.10;5.13;;;;;;;33.49;37.40;100152.00;20976100;28;20052;-74
2023/07/26 17:43:17;;;;;;;17.80;5.13;;;;;;;33.23;35.69;100157.06;20973220;28;20055;-75
2023/07/26 17:53:40;;;;;;;14.15;4.75;;;;;;;33.04;34.70;100156.91;20983031;28;20106;-75
2023/07/26 18:04:05;;;;;;;14.82;4.95;;;;;;;32.82;33.99;100157.94;20960411;28;20045;-75
2023/07/26 18:14:27;;;;;;;22.60;5.07;;;;;;;32.66;33.89;100154.75;20924113;28;20048;-75
2023/07/26 18:24:51;;;;;;;15.15;5.18;;;;;;;32.52;33.51;100160.53;20958934;28;20053;-75
2023/07/26 18:35:16;;;;;;;23.50;7.07;;;;;;;32.36;33.85;100167.28;20922249;28;20136;-75
2023/07/26 18:45:41;;;;;;;16.38;4.85;;;;;;;32.31;32.88;100169.53;20951453;28;20488;-75
2023/07/26 18:56:04;;;;;;;18.52;5.60;;;;;;;32.01;33.40;100174.81;20977909;28;20366;-75
2023/07/26 19:06:28;;;;;;;20.75;8.27;;;;;;;31.75;33.87;100165.16;20950553;28;20052;-74
2023/07/26 19:16:52;;;;;;;18.80;6.78;;;;;;;31.62;33.37;100162.56;20956910;28;20056;-74
2023/07/26 19:27:19;;;;;;;16.80;5.93;;;;;;;31.48;32.91;100171.84;20897634;28;20049;-75
2023/07/26 19:37:42;;;;;;;15.88;4.78;;;;;;;31.45;31.90;100177.53;20972176;28;20467;-74
2023/07/26 19:48:07;;;;;;;17.55;5.38;;;;;;;31.20;31.43;100175.91;20913571;28;20143;-75
2023/07/26 19:58:29;;;;;;;15.60;4.65;;;;;;;31.27;30.10;100171.72;20925691;28;20078;-74
2023/07/26 20:08:53;;;;;;;23.05;5.53;;;;;;;31.14;30.07;100170.94;20905512;28;20049;-74
2023/07/26 20:19:16;;;;;;;18.13;5.07;;;;;;;30.95;29.39;100167.91;20907204;28;20045;-74
2023/07/26 20:29:41;;;;;;;25.55;5.90;;;;;;;30.76;29.13;100170.34;20880980;28;20099;-73
2023/07/26 20:40:04;;;;;;;19.45;5.18;;;;;;;30.55;29.51;100159.22;20895357;28;20069;-74
2023/07/26 20:50:29;;;;;;;12.15;4.60;;;;;;;30.21;29.03;100150.00;20910341;28;20548;-75
2023/07/26 21:00:52;;;;;;;21.67;6.30;;;;;;;30.04;28.98;100148.56;20917054;28;20053;-74
2023/07/26 21:11:16;;;;;;;19.00;6.50;;;;;;;29.90;29.44;100136.91;20911263;28;20715;-75
2023/07/26 21:21:38;;;;;;;13.70;4.78;;;;;;;29.85;28.98;100131.81;20885770;28;20438;-74
2023/07/26 21:32:03;;;;;;;18.45;5.38;;;;;;;30.02;28.67;100127.84;20841104;28;20053;-75
2023/07/26 21:42:26;;;;;;;21.60;6.15;;;;;;;29.74;28.60;100112.69;20901210;28;20598;-74
2023/07/26 21:52:50;;;;;;;17.08;5.10;;;;;;;29.73;28.24;100106.34;20900706;28;20677;-74
2023/07/26 22:03:14;;;;;;;18.90;5.20;;;;;;;29.82;28.45;100103.94;20902616;28;20045;-74
2023/07/26 22:13:38;;;;;;;20.65;5.53;;;;;;;29.85;27.99;100098.28;20939683;28;20153;-74
2023/07/26 22:24:01;;;;;;;16.63;4.65;;;;;;;29.73;28.26;100090.03;20921743;28;20052;-75
2023/07/26 22:34:25;;;;;;;17.63;4.82;;;;;;;29.66;27.72;100087.91;20882603;28;20049;-74
2023/07/26 22:44:48;;;;;;;14.93;4.32;;;;;;;29.60;28.16;100072.88;20898465;28;20575;-74
2023/07/26 22:55:13;;;;;;;19.08;4.90;;;;;;;29.55;27.64;100066.03;20895464;28;20444;-75
2023/07/26 23:05:36;;;;;;;17.10;5.45;;;;;;;29.45;28.03;100055.00;20885936;28;20677;-75
2023/07/26 23:15:40;;;;;;;23.75;5.53;;;;;;;29.40;27.47;100045.44;20907112;28;20544;-74
2023/07/26 23:26:02;;;;;;;17.98;5.55;;;;;;;29.46;26.55;100045.84;20882184;28;20060;-74
2023/07/26 23:36:27;;;;;;;14.82;4.78;;;;;;;29.50;26.43;100047.34;20873626;28;20052;-74
2023/07/26 23:46:50;;;;;;;17.60;4.50;;;;;;;29.69;25.89;100025.94;20895733;28;20127;-75
2023/07/26 23:57:15;;;;;;;15.77;4.55;;;;;;;29.84;25.50;100020.31;20881588;28;20419;-74
